sensor_id;sensor_type;location;lat;lon;timestamp;temperature;humidity
85671;DHT22;76102;50.890;3.932;2024-03-08T00:00:46;5.00;77.40
85671;DHT22;76102;50.890;3.932;2024-03-08T00:03:11;5.00;77.00
85671;DHT22;76102;50.890;3.932;2024-03-08T00:05:37;5.00;76.90
85671;DHT22;76102;50.890;3.932;2024-03-08T00:08:06;5.00;77.00
85671;DHT22;76102;50.890;3.932;2024-03-08T00:10:35;5.00;76.60
85671;DHT22;76102;50.890;3.932;2024-03-08T00:13:03;4.90;76.80
85671;DHT22;76102;50.890;3.932;2024-03-08T00:15:29;4.90;76.90
85671;DHT22;76102;50.890;3.932;2024-03-08T00:17:55;4.80;76.90
85671;DHT22;76102;50.890;3.932;2024-03-08T00:20:20;4.70;77.30
85671;DHT22;76102;50.890;3.932;2024-03-08T00:22:46;4.80;77.10
85671;DHT22;76102;50.890;3.932;2024-03-08T00:25:14;4.80;76.90
85671;DHT22;76102;50.890;3.932;2024-03-08T00:27:43;4.80;76.60
85671;DHT22;76102;50.890;3.932;2024-03-08T00:30:11;4.80;76.70
85671;DHT22;76102;50.890;3.932;2024-03-08T00:32:42;4.70;76.50
85671;DHT22;76102;50.890;3.932;2024-03-08T00:35:10;4.70;76.30
85671;DHT22;76102;50.890;3.932;2024-03-08T00:37:37;4.80;76.20
85671;DHT22;76102;50.890;3.932;2024-03-08T00:40:03;4.70;76.20
85671;DHT22;76102;50.890;3.932;2024-03-08T00:42:32;4.70;76.20
85671;DHT22;76102;50.890;3.932;2024-03-08T00:44:58;4.60;76.30
85671;DHT22;76102;50.890;3.932;2024-03-08T00:47:29;4.60;76.60
85671;DHT22;76102;50.890;3.932;2024-03-08T00:49:57;4.50;76.70
85671;DHT22;76102;50.890;3.932;2024-03-08T00:52:29;4.50;77.20
85671;DHT22;76102;50.890;3.932;2024-03-08T00:54:55;4.50;77.00
85671;DHT22;76102;50.890;3.932;2024-03-08T00:57:20;4.50;76.90
85671;DHT22;76102;50.890;3.932;2024-03-08T00:59:50;4.50;76.60
85671;DHT22;76102;50.890;3.932;2024-03-08T01:02:18;4.50;76.50
85671;DHT22;76102;50.890;3.932;2024-03-08T01:04:46;4.40;76.40
85671;DHT22;76102;50.890;3.932;2024-03-08T01:07:12;4.40;76.50
85671;DHT22;76102;50.890;3.932;2024-03-08T01:09:38;4.40;76.70
85671;DHT22;76102;50.890;3.932;2024-03-08T01:12:04;4.40;76.40
85671;DHT22;76102;50.890;3.932;2024-03-08T01:14:32;4.50;76.30
85671;DHT22;76102;50.890;3.932;2024-03-08T01:17:01;4.40;76.20
85671;DHT22;76102;50.890;3.932;2024-03-08T01:19:27;4.40;76.20
85671;DHT22;76102;50.890;3.932;2024-03-08T01:21:52;4.30;76.60
85671;DHT22;76102;50.890;3.932;2024-03-08T01:24:21;4.30;76.60
85671;DHT22;76102;50.890;3.932;2024-03-08T01:26:46;4.30;76.40
85671;DHT22;76102;50.890;3.932;2024-03-08T01:29:13;4.30;76.60
85671;DHT22;76102;50.890;3.932;2024-03-08T01:31:41;4.20;77.20
85671;DHT22;76102;50.890;3.932;2024-03-08T01:34:06;4.20;77.20
85671;DHT22;76102;50.890;3.932;2024-03-08T01:36:32;4.30;77.10
85671;DHT22;76102;50.890;3.932;2024-03-08T01:38:58;4.30;76.70
85671;DHT22;76102;50.890;3.932;2024-03-08T01:41:23;4.30;76.70
85671;DHT22;76102;50.890;3.932;2024-03-08T01:43:49;4.30;76.90
85671;DHT22;76102;50.890;3.932;2024-03-08T01:46:19;4.30;76.70
85671;DHT22;76102;50.890;3.932;2024-03-08T01:48:47;4.30;76.70
85671;DHT22;76102;50.890;3.932;2024-03-08T01:51:16;4.30;77.70
85671;DHT22;76102;50.890;3.932;2024-03-08T01:53:46;4.20;77.10
85671;DHT22;76102;50.890;3.932;2024-03-08T01:56:11;4.20;77.20
85671;DHT22;76102;50.890;3.932;2024-03-08T01:58:41;4.20;77.30
85671;DHT22;76102;50.890;3.932;2024-03-08T02:01:12;4.20;77.30
85671;DHT22;76102;50.890;3.932;2024-03-08T02:03:42;4.10;77.30
85671;DHT22;76102;50.890;3.932;2024-03-08T02:06:13;4.10;78.30
85671;DHT22;76102;50.890;3.932;2024-03-08T02:08:45;4.20;77.30
85671;DHT22;76102;50.890;3.932;2024-03-08T02:11:14;4.20;76.90
85671;DHT22;76102;50.890;3.932;2024-03-08T02:13:40;4.20;76.70
85671;DHT22;76102;50.890;3.932;2024-03-08T02:16:06;4.20;76.90
85671;DHT22;76102;50.890;3.932;2024-03-08T02:18:35;4.20;76.50
85671;DHT22;76102;50.890;3.932;2024-03-08T02:21:04;4.20;76.80
85671;DHT22;76102;50.890;3.932;2024-03-08T02:23:31;4.10;76.80
85671;DHT22;76102;50.890;3.932;2024-03-08T02:25:57;4.10;76.90
85671;DHT22;76102;50.890;3.932;2024-03-08T02:28:25;4.10;76.60
85671;DHT22;76102;50.890;3.932;2024-03-08T02:30:52;4.10;76.60
85671;DHT22;76102;50.890;3.932;2024-03-08T02:33:22;4.10;76.50
85671;DHT22;76102;50.890;3.932;2024-03-08T02:35:48;4.20;76.10
85671;DHT22;76102;50.890;3.932;2024-03-08T02:38:22;4.10;76.40
85671;DHT22;76102;50.890;3.932;2024-03-08T02:40:49;4.10;76.10
85671;DHT22;76102;50.890;3.932;2024-03-08T02:43:17;4.10;76.20
85671;DHT22;76102;50.890;3.932;2024-03-08T02:45:44;4.10;76.30
85671;DHT22;76102;50.890;3.932;2024-03-08T02:48:11;4.00;76.40
85671;DHT22;76102;50.890;3.932;2024-03-08T02:50:37;4.00;76.60
85671;DHT22;76102;50.890;3.932;2024-03-08T02:53:05;4.00;76.40
85671;DHT22;76102;50.890;3.932;2024-03-08T02:55:33;4.00;76.20
85671;DHT22;76102;50.890;3.932;2024-03-08T02:58:02;4.00;76.30
85671;DHT22;76102;50.890;3.932;2024-03-08T03:00:30;3.90;76.10
85671;DHT22;76102;50.890;3.932;2024-03-08T03:03:02;3.90;76.10
85671;DHT22;76102;50.890;3.932;2024-03-08T03:05:29;3.90;76.20
85671;DHT22;76102;50.890;3.932;2024-03-08T03:07:56;3.90;76.00
85671;DHT22;76102;50.890;3.932;2024-03-08T03:10:24;3.80;75.90
85671;DHT22;76102;50.890;3.932;2024-03-08T03:12:54;3.90;75.80
85671;DHT22;76102;50.890;3.932;2024-03-08T03:15:20;3.80;76.00
85671;DHT22;76102;50.890;3.932;2024-03-08T03:17:49;3.80;75.70
85671;DHT22;76102;50.890;3.932;2024-03-08T03:20:23;3.80;76.10
85671;DHT22;76102;50.890;3.932;2024-03-08T03:22:56;3.80;75.90
85671;DHT22;76102;50.890;3.932;2024-03-08T03:25:25;3.70;76.10
85671;DHT22;76102;50.890;3.932;2024-03-08T03:27:58;3.80;76.00
85671;DHT22;76102;50.890;3.932;2024-03-08T03:30:24;3.80;75.90
85671;DHT22;76102;50.890;3.932;2024-03-08T03:32:52;3.80;75.70
85671;DHT22;76102;50.890;3.932;2024-03-08T03:35:20;3.70;75.70
85671;DHT22;76102;50.890;3.932;2024-03-08T03:37:46;3.70;75.80
85671;DHT22;76102;50.890;3.932;2024-03-08T03:40:31;3.60;75.90
85671;DHT22;76102;50.890;3.932;2024-03-08T03:42:57;3.60;76.10
85671;DHT22;76102;50.890;3.932;2024-03-08T03:45:27;3.70;75.80
85671;DHT22;76102;50.890;3.932;2024-03-08T03:47:52;3.70;75.60
85671;DHT22;76102;50.890;3.932;2024-03-08T03:50:19;3.70;75.40
85671;DHT22;76102;50.890;3.932;2024-03-08T03:52:46;3.70;75.50
85671;DHT22;76102;50.890;3.932;2024-03-08T03:55:12;3.60;75.40
85671;DHT22;76102;50.890;3.932;2024-03-08T03:57:41;3.60;75.50
85671;DHT22;76102;50.890;3.932;2024-03-08T04:00:07;3.60;75.50
85671;DHT22;76102;50.890;3.932;2024-03-08T04:02:41;3.60;75.50
85671;DHT22;76102;50.890;3.932;2024-03-08T04:05:11;3.50;75.90
85671;DHT22;76102;50.890;3.932;2024-03-08T04:07:41;3.60;75.70
85671;DHT22;76102;50.890;3.932;2024-03-08T04:10:09;3.60;75.60
85671;DHT22;76102;50.890;3.932;2024-03-08T04:12:38;3.50;75.60
85671;DHT22;76102;50.890;3.932;2024-03-08T04:15:04;3.50;75.70
85671;DHT22;76102;50.890;3.932;2024-03-08T04:17:33;3.40;75.60
85671;DHT22;76102;50.890;3.932;2024-03-08T04:19:58;3.50;76.30
85671;DHT22;76102;50.890;3.932;2024-03-08T04:22:26;3.40;78.80
85671;DHT22;76102;50.890;3.932;2024-03-08T04:24:54;3.40;77.40
85671;DHT22;76102;50.890;3.932;2024-03-08T04:27:22;3.30;77.20
85671;DHT22;76102;50.890;3.932;2024-03-08T04:29:47;3.30;78.00
85671;DHT22;76102;50.890;3.932;2024-03-08T04:32:15;3.40;77.40
85671;DHT22;76102;50.890;3.932;2024-03-08T04:34:41;3.30;77.10
85671;DHT22;76102;50.890;3.932;2024-03-08T04:37:09;3.20;77.30
85671;DHT22;76102;50.890;3.932;2024-03-08T04:39:41;3.30;77.50
85671;DHT22;76102;50.890;3.932;2024-03-08T04:42:07;3.30;77.20
85671;DHT22;76102;50.890;3.932;2024-03-08T04:44:39;3.30;77.00
85671;DHT22;76102;50.890;3.932;2024-03-08T04:47:05;3.30;76.70
85671;DHT22;76102;50.890;3.932;2024-03-08T04:49:36;3.20;76.70
85671;DHT22;76102;50.890;3.932;2024-03-08T04:52:05;3.20;77.20
85671;DHT22;76102;50.890;3.932;2024-03-08T04:54:35;3.20;78.40
85671;DHT22;76102;50.890;3.932;2024-03-08T04:57:01;3.20;77.90
85671;DHT22;76102;50.890;3.932;2024-03-08T04:59:30;3.20;77.70
85671;DHT22;76102;50.890;3.932;2024-03-08T05:01:58;3.20;79.10
85671;DHT22;76102;50.890;3.932;2024-03-08T05:04:25;3.20;78.80
85671;DHT22;76102;50.890;3.932;2024-03-08T05:06:51;3.20;78.20
85671;DHT22;76102;50.890;3.932;2024-03-08T05:09:17;3.20;78.00
85671;DHT22;76102;50.890;3.932;2024-03-08T05:11:47;3.20;77.70
85671;DHT22;76102;50.890;3.932;2024-03-08T05:14:13;3.20;78.40
85671;DHT22;76102;50.890;3.932;2024-03-08T05:16:45;3.10;78.10
85671;DHT22;76102;50.890;3.932;2024-03-08T05:19:15;3.10;78.20
85671;DHT22;76102;50.890;3.932;2024-03-08T05:21:44;3.10;77.50
85671;DHT22;76102;50.890;3.932;2024-03-08T05:24:10;3.10;77.30
85671;DHT22;76102;50.890;3.932;2024-03-08T05:26:40;3.00;77.90
85671;DHT22;76102;50.890;3.932;2024-03-08T05:29:06;3.00;78.10
85671;DHT22;76102;50.890;3.932;2024-03-08T05:31:49;3.00;78.50
85671;DHT22;76102;50.890;3.932;2024-03-08T05:34:16;3.00;78.60
85671;DHT22;76102;50.890;3.932;2024-03-08T05:36:45;3.00;78.40
85671;DHT22;76102;50.890;3.932;2024-03-08T05:39:15;3.00;77.60
85671;DHT22;76102;50.890;3.932;2024-03-08T05:41:41;3.10;77.70
85671;DHT22;76102;50.890;3.932;2024-03-08T05:44:11;3.10;78.00
85671;DHT22;76102;50.890;3.932;2024-03-08T05:46:39;3.00;78.20
85671;DHT22;76102;50.890;3.932;2024-03-08T05:49:06;3.00;78.10
85671;DHT22;76102;50.890;3.932;2024-03-08T05:51:33;2.90;76.90
85671;DHT22;76102;50.890;3.932;2024-03-08T05:54:05;2.90;77.00
85671;DHT22;76102;50.890;3.932;2024-03-08T05:56:34;2.90;77.30
85671;DHT22;76102;50.890;3.932;2024-03-08T05:59:01;2.90;77.30
85671;DHT22;76102;50.890;3.932;2024-03-08T06:01:27;2.90;77.10
85671;DHT22;76102;50.890;3.932;2024-03-08T06:03:56;2.90;77.20
85671;DHT22;76102;50.890;3.932;2024-03-08T06:06:25;2.90;77.60
85671;DHT22;76102;50.890;3.932;2024-03-08T06:08:55;2.90;77.90
85671;DHT22;76102;50.890;3.932;2024-03-08T06:11:34;2.80;77.80
85671;DHT22;76102;50.890;3.932;2024-03-08T06:13:59;2.80;77.70
85671;DHT22;76102;50.890;3.932;2024-03-08T06:16:26;2.80;77.80
85671;DHT22;76102;50.890;3.932;2024-03-08T06:19:00;2.80;77.50
85671;DHT22;76102;50.890;3.932;2024-03-08T06:21:27;2.90;77.70
85671;DHT22;76102;50.890;3.932;2024-03-08T06:23:53;2.90;77.80
85671;DHT22;76102;50.890;3.932;2024-03-08T06:26:25;2.80;77.90
85671;DHT22;76102;50.890;3.932;2024-03-08T06:28:54;2.80;78.00
85671;DHT22;76102;50.890;3.932;2024-03-08T06:31:24;2.80;78.00
85671;DHT22;76102;50.890;3.932;2024-03-08T06:33:50;2.80;77.80
85671;DHT22;76102;50.890;3.932;2024-03-08T06:36:18;2.90;77.70
85671;DHT22;76102;50.890;3.932;2024-03-08T06:38:49;2.90;77.50
85671;DHT22;76102;50.890;3.932;2024-03-08T06:41:17;2.80;77.50
85671;DHT22;76102;50.890;3.932;2024-03-08T06:43:47;2.90;77.70
85671;DHT22;76102;50.890;3.932;2024-03-08T06:46:19;2.90;77.90
85671;DHT22;76102;50.890;3.932;2024-03-08T06:48:46;2.90;79.00
85671;DHT22;76102;50.890;3.932;2024-03-08T06:51:11;2.90;78.60
85671;DHT22;76102;50.890;3.932;2024-03-08T06:53:37;3.00;78.20
85671;DHT22;76102;50.890;3.932;2024-03-08T06:56:04;3.00;79.10
85671;DHT22;76102;50.890;3.932;2024-03-08T06:58:32;3.00;77.70
85671;DHT22;76102;50.890;3.932;2024-03-08T07:00:58;3.10;78.30
85671;DHT22;76102;50.890;3.932;2024-03-08T07:03:26;3.10;77.50
85671;DHT22;76102;50.890;3.932;2024-03-08T07:05:55;3.20;76.80
85671;DHT22;76102;50.890;3.932;2024-03-08T07:08:22;3.30;76.60
85671;DHT22;76102;50.890;3.932;2024-03-08T07:10:50;3.40;76.10
85671;DHT22;76102;50.890;3.932;2024-03-08T07:13:16;3.50;75.30
85671;DHT22;76102;50.890;3.932;2024-03-08T07:15:43;3.50;75.30
85671;DHT22;76102;50.890;3.932;2024-03-08T07:18:11;3.50;75.40
85671;DHT22;76102;50.890;3.932;2024-03-08T07:20:41;3.60;75.40
85671;DHT22;76102;50.890;3.932;2024-03-08T07:23:07;3.90;74.70
85671;DHT22;76102;50.890;3.932;2024-03-08T07:25:35;3.90;74.40
85671;DHT22;76102;50.890;3.932;2024-03-08T07:28:01;4.00;73.10
85671;DHT22;76102;50.890;3.932;2024-03-08T07:30:27;4.20;72.80
85671;DHT22;76102;50.890;3.932;2024-03-08T07:33:12;4.10;72.90
85671;DHT22;76102;50.890;3.932;2024-03-08T07:35:38;4.20;72.60
85671;DHT22;76102;50.890;3.932;2024-03-08T07:38:09;4.20;72.40
85671;DHT22;76102;50.890;3.932;2024-03-08T07:40:41;4.20;72.90
85671;DHT22;76102;50.890;3.932;2024-03-08T07:43:12;4.30;72.80
85671;DHT22;76102;50.890;3.932;2024-03-08T07:45:42;4.80;71.20
85671;DHT22;76102;50.890;3.932;2024-03-08T07:48:10;5.20;69.70
85671;DHT22;76102;50.890;3.932;2024-03-08T07:50:39;5.40;68.00
85671;DHT22;76102;50.890;3.932;2024-03-08T07:53:06;5.70;67.50
85671;DHT22;76102;50.890;3.932;2024-03-08T07:55:33;5.70;67.40
85671;DHT22;76102;50.890;3.932;2024-03-08T07:57:59;6.30;67.10
85671;DHT22;76102;50.890;3.932;2024-03-08T08:00:25;6.10;66.30
85671;DHT22;76102;50.890;3.932;2024-03-08T08:02:54;6.10;66.50
85671;DHT22;76102;50.890;3.932;2024-03-08T08:05:19;6.30;66.30
85671;DHT22;76102;50.890;3.932;2024-03-08T08:07:45;6.60;64.70
85671;DHT22;76102;50.890;3.932;2024-03-08T08:10:14;6.50;64.80
85671;DHT22;76102;50.890;3.932;2024-03-08T08:12:44;6.80;63.80
85671;DHT22;76102;50.890;3.932;2024-03-08T08:15:11;6.60;64.20
85671;DHT22;76102;50.890;3.932;2024-03-08T08:17:36;6.60;64.80
85671;DHT22;76102;50.890;3.932;2024-03-08T08:20:03;6.80;64.00
85671;DHT22;76102;50.890;3.932;2024-03-08T08:22:33;6.80;64.00
85671;DHT22;76102;50.890;3.932;2024-03-08T08:24:58;6.90;62.90
85671;DHT22;76102;50.890;3.932;2024-03-08T08:27:24;7.10;62.50
85671;DHT22;76102;50.890;3.932;2024-03-08T08:29:54;7.20;62.20
85671;DHT22;76102;50.890;3.932;2024-03-08T08:32:19;7.40;62.00
85671;DHT22;76102;50.890;3.932;2024-03-08T08:34:47;7.40;62.40
85671;DHT22;76102;50.890;3.932;2024-03-08T08:37:13;7.70;61.20
85671;DHT22;76102;50.890;3.932;2024-03-08T08:39:39;7.50;61.10
85671;DHT22;76102;50.890;3.932;2024-03-08T08:42:05;7.70;61.90
85671;DHT22;76102;50.890;3.932;2024-03-08T08:44:37;8.10;60.30
85671;DHT22;76102;50.890;3.932;2024-03-08T08:47:05;8.50;59.00
85671;DHT22;76102;50.890;3.932;2024-03-08T08:49:33;8.30;58.70
85671;DHT22;76102;50.890;3.932;2024-03-08T08:52:01;8.60;59.10
85671;DHT22;76102;50.890;3.932;2024-03-08T08:54:26;8.70;58.30
85671;DHT22;76102;50.890;3.932;2024-03-08T08:56:53;8.90;57.70
85671;DHT22;76102;50.890;3.932;2024-03-08T08:59:21;8.90;57.10
85671;DHT22;76102;50.890;3.932;2024-03-08T09:01:50;8.90;57.50
85671;DHT22;76102;50.890;3.932;2024-03-08T09:04:19;8.90;57.50
85671;DHT22;76102;50.890;3.932;2024-03-08T09:06:47;9.10;57.00
85671;DHT22;76102;50.890;3.932;2024-03-08T09:09:12;9.30;57.50
85671;DHT22;76102;50.890;3.932;2024-03-08T09:11:39;9.20;56.00
85671;DHT22;76102;50.890;3.932;2024-03-08T09:14:07;9.10;56.40
85671;DHT22;76102;50.890;3.932;2024-03-08T09:16:37;9.00;56.00
85671;DHT22;76102;50.890;3.932;2024-03-08T09:19:05;9.00;56.60
85671;DHT22;76102;50.890;3.932;2024-03-08T09:21:33;9.20;56.00
85671;DHT22;76102;50.890;3.932;2024-03-08T09:24:02;9.60;56.20
85671;DHT22;76102;50.890;3.932;2024-03-08T09:26:28;10.40;53.40
85671;DHT22;76102;50.890;3.932;2024-03-08T09:28:54;10.50;53.00
85671;DHT22;76102;50.890;3.932;2024-03-08T09:31:22;10.40;52.80
85671;DHT22;76102;50.890;3.932;2024-03-08T09:33:50;10.20;53.30
85671;DHT22;76102;50.890;3.932;2024-03-08T09:36:17;10.60;52.10
85671;DHT22;76102;50.890;3.932;2024-03-08T09:38:43;9.50;52.90
85671;DHT22;76102;50.890;3.932;2024-03-08T09:41:09;9.90;53.80
85671;DHT22;76102;50.890;3.932;2024-03-08T09:43:36;10.10;52.70
85671;DHT22;76102;50.890;3.932;2024-03-08T09:46:03;10.50;52.40
85671;DHT22;76102;50.890;3.932;2024-03-08T09:48:31;10.40;52.40
85671;DHT22;76102;50.890;3.932;2024-03-08T09:50:59;11.00;50.60
85671;DHT22;76102;50.890;3.932;2024-03-08T09:53:25;11.40;51.00
85671;DHT22;76102;50.890;3.932;2024-03-08T09:55:51;11.60;49.40
85671;DHT22;76102;50.890;3.932;2024-03-08T09:58:17;12.00;49.00
85671;DHT22;76102;50.890;3.932;2024-03-08T10:00:43;12.00;49.60
85671;DHT22;76102;50.890;3.932;2024-03-08T10:03:09;11.30;49.70
85671;DHT22;76102;50.890;3.932;2024-03-08T10:05:36;11.70;49.70
85671;DHT22;76102;50.890;3.932;2024-03-08T10:08:02;11.60;50.40
85671;DHT22;76102;50.890;3.932;2024-03-08T10:10:28;11.30;48.90
85671;DHT22;76102;50.890;3.932;2024-03-08T10:12:55;10.60;50.10
85671;DHT22;76102;50.890;3.932;2024-03-08T10:15:27;10.90;50.50
85671;DHT22;76102;50.890;3.932;2024-03-08T10:17:56;11.20;50.50
85671;DHT22;76102;50.890;3.932;2024-03-08T10:20:27;11.50;48.70
85671;DHT22;76102;50.890;3.932;2024-03-08T10:22:52;11.00;49.70
85671;DHT22;76102;50.890;3.932;2024-03-08T10:25:19;10.90;50.90
85671;DHT22;76102;50.890;3.932;2024-03-08T10:27:45;11.50;50.10
85671;DHT22;76102;50.890;3.932;2024-03-08T10:30:16;12.00;48.50
85671;DHT22;76102;50.890;3.932;2024-03-08T10:32:48;12.00;48.80
85671;DHT22;76102;50.890;3.932;2024-03-08T10:35:14;12.00;48.70
85671;DHT22;76102;50.890;3.932;2024-03-08T10:37:48;11.20;50.00
85671;DHT22;76102;50.890;3.932;2024-03-08T10:40:24;10.60;51.00
85671;DHT22;76102;50.890;3.932;2024-03-08T10:42:58;10.00;52.40
85671;DHT22;76102;50.890;3.932;2024-03-08T10:45:56;9.70;54.80
85671;DHT22;76102;50.890;3.932;2024-03-08T10:48:31;10.10;57.00
85671;DHT22;76102;50.890;3.932;2024-03-08T10:50:59;9.50;53.60
85671;DHT22;76102;50.890;3.932;2024-03-08T10:53:27;9.40;55.50
85671;DHT22;76102;50.890;3.932;2024-03-08T10:55:53;9.60;55.60
85671;DHT22;76102;50.890;3.932;2024-03-08T10:58:22;9.80;57.10
85671;DHT22;76102;50.890;3.932;2024-03-08T11:00:53;10.00;55.40
85671;DHT22;76102;50.890;3.932;2024-03-08T11:06:08;9.90;54.60
85671;DHT22;76102;50.890;3.932;2024-03-08T11:08:39;10.20;54.80
85671;DHT22;76102;50.890;3.932;2024-03-08T11:11:05;9.90;54.50
85671;DHT22;76102;50.890;3.932;2024-03-08T11:13:39;10.00;54.70
85671;DHT22;76102;50.890;3.932;2024-03-08T11:19:04;10.10;54.80
85671;DHT22;76102;50.890;3.932;2024-03-08T11:21:33;9.90;55.80
85671;DHT22;76102;50.890;3.932;2024-03-08T11:24:06;10.00;56.20
85671;DHT22;76102;50.890;3.932;2024-03-08T11:26:33;10.00;56.10
85671;DHT22;76102;50.890;3.932;2024-03-08T11:32:11;10.30;54.00
85671;DHT22;76102;50.890;3.932;2024-03-08T11:37:18;10.10;54.40
85671;DHT22;76102;50.890;3.932;2024-03-08T11:39:51;10.00;54.10
85671;DHT22;76102;50.890;3.932;2024-03-08T11:42:18;10.00;55.00
85671;DHT22;76102;50.890;3.932;2024-03-08T11:44:49;10.20;55.30
85671;DHT22;76102;50.890;3.932;2024-03-08T11:47:18;10.40;56.50
85671;DHT22;76102;50.890;3.932;2024-03-08T11:49:45;10.40;55.50
85671;DHT22;76102;50.890;3.932;2024-03-08T11:52:17;10.50;56.20
85671;DHT22;76102;50.890;3.932;2024-03-08T11:54:54;10.60;54.30
85671;DHT22;76102;50.890;3.932;2024-03-08T11:57:26;10.70;55.10
85671;DHT22;76102;50.890;3.932;2024-03-08T11:59:54;10.80;55.40
85671;DHT22;76102;50.890;3.932;2024-03-08T12:02:22;10.90;54.20
85671;DHT22;76102;50.890;3.932;2024-03-08T12:04:56;10.80;53.40
85671;DHT22;76102;50.890;3.932;2024-03-08T12:07:29;10.80;53.30
85671;DHT22;76102;50.890;3.932;2024-03-08T12:12:48;10.90;53.70
85671;DHT22;76102;50.890;3.932;2024-03-08T12:15:16;10.80;53.70
85671;DHT22;76102;50.890;3.932;2024-03-08T12:17:44;11.00;54.70
85671;DHT22;76102;50.890;3.932;2024-03-08T12:22:51;11.40;53.30
85671;DHT22;76102;50.890;3.932;2024-03-08T12:25:26;11.40;53.70
85671;DHT22;76102;50.890;3.932;2024-03-08T12:27:52;11.40;56.20
85671;DHT22;76102;50.890;3.932;2024-03-08T12:30:26;11.50;53.30
85671;DHT22;76102;50.890;3.932;2024-03-08T12:32:58;11.40;52.90
85671;DHT22;76102;50.890;3.932;2024-03-08T12:35:25;11.40;52.90
85671;DHT22;76102;50.890;3.932;2024-03-08T12:37:53;11.30;52.40
85671;DHT22;76102;50.890;3.932;2024-03-08T12:40:29;11.20;52.60
85671;DHT22;76102;50.890;3.932;2024-03-08T12:42:58;11.30;52.60
85671;DHT22;76102;50.890;3.932;2024-03-08T12:45:24;11.40;53.00
85671;DHT22;76102;50.890;3.932;2024-03-08T12:47:51;11.40;54.30
85671;DHT22;76102;50.890;3.932;2024-03-08T12:50:20;11.40;54.80
85671;DHT22;76102;50.890;3.932;2024-03-08T12:52:47;11.60;53.60
85671;DHT22;76102;50.890;3.932;2024-03-08T12:55:12;11.30;52.70
85671;DHT22;76102;50.890;3.932;2024-03-08T12:57:39;11.30;53.40
85671;DHT22;76102;50.890;3.932;2024-03-08T13:00:09;11.40;52.90
85671;DHT22;76102;50.890;3.932;2024-03-08T13:02:48;11.40;52.90
85671;DHT22;76102;50.890;3.932;2024-03-08T13:05:16;11.60;53.30
85671;DHT22;76102;50.890;3.932;2024-03-08T13:07:42;11.70;53.90
85671;DHT22;76102;50.890;3.932;2024-03-08T13:10:15;11.90;51.10
85671;DHT22;76102;50.890;3.932;2024-03-08T13:12:44;11.90;51.40
85671;DHT22;76102;50.890;3.932;2024-03-08T13:15:10;11.70;50.80
85671;DHT22;76102;50.890;3.932;2024-03-08T13:17:49;11.70;51.90
85671;DHT22;76102;50.890;3.932;2024-03-08T13:20:15;11.60;51.30
85671;DHT22;76102;50.890;3.932;2024-03-08T13:22:48;11.80;50.90
85671;DHT22;76102;50.890;3.932;2024-03-08T13:25:13;11.80;51.70
85671;DHT22;76102;50.890;3.932;2024-03-08T13:27:42;11.90;51.20
85671;DHT22;76102;50.890;3.932;2024-03-08T13:30:11;11.90;50.60
85671;DHT22;76102;50.890;3.932;2024-03-08T13:32:42;12.00;51.10
85671;DHT22;76102;50.890;3.932;2024-03-08T13:35:13;12.20;51.20
85671;DHT22;76102;50.890;3.932;2024-03-08T13:37:40;12.40;51.40
85671;DHT22;76102;50.890;3.932;2024-03-08T13:40:07;12.30;49.50
85671;DHT22;76102;50.890;3.932;2024-03-08T13:42:37;12.10;51.60
85671;DHT22;76102;50.890;3.932;2024-03-08T13:45:09;12.20;50.70
85671;DHT22;76102;50.890;3.932;2024-03-08T13:47:41;12.40;50.40
85671;DHT22;76102;50.890;3.932;2024-03-08T13:50:07;12.20;50.10
85671;DHT22;76102;50.890;3.932;2024-03-08T13:52:37;12.20;50.20
85671;DHT22;76102;50.890;3.932;2024-03-08T13:55:04;12.30;50.00
85671;DHT22;76102;50.890;3.932;2024-03-08T13:57:31;12.50;50.10
85671;DHT22;76102;50.890;3.932;2024-03-08T13:59:58;12.30;50.00
85671;DHT22;76102;50.890;3.932;2024-03-08T14:02:23;12.40;50.10
85671;DHT22;76102;50.890;3.932;2024-03-08T14:04:57;12.60;51.80
85671;DHT22;76102;50.890;3.932;2024-03-08T14:07:23;12.60;49.60
85671;DHT22;76102;50.890;3.932;2024-03-08T14:09:54;12.30;50.10
85671;DHT22;76102;50.890;3.932;2024-03-08T14:12:19;12.20;50.30
85671;DHT22;76102;50.890;3.932;2024-03-08T14:14:45;12.20;51.20
85671;DHT22;76102;50.890;3.932;2024-03-08T14:17:11;12.30;50.30
85671;DHT22;76102;50.890;3.932;2024-03-08T14:19:43;12.50;49.50
85671;DHT22;76102;50.890;3.932;2024-03-08T14:22:11;12.60;51.70
85671;DHT22;76102;50.890;3.932;2024-03-08T14:24:43;12.60;49.70
85671;DHT22;76102;50.890;3.932;2024-03-08T14:27:10;12.50;49.80
85671;DHT22;76102;50.890;3.932;2024-03-08T14:29:37;12.70;49.50
85671;DHT22;76102;50.890;3.932;2024-03-08T14:32:07;12.70;49.80
85671;DHT22;76102;50.890;3.932;2024-03-08T14:34:34;12.80;49.50
85671;DHT22;76102;50.890;3.932;2024-03-08T14:37:00;12.70;49.20
85671;DHT22;76102;50.890;3.932;2024-03-08T14:39:26;12.70;50.70
85671;DHT22;76102;50.890;3.932;2024-03-08T14:41:55;12.80;49.50
85671;DHT22;76102;50.890;3.932;2024-03-08T14:44:23;12.70;49.00
85671;DHT22;76102;50.890;3.932;2024-03-08T14:46:55;12.60;49.20
85671;DHT22;76102;50.890;3.932;2024-03-08T14:49:22;12.80;50.10
85671;DHT22;76102;50.890;3.932;2024-03-08T14:51:50;12.80;50.00
85671;DHT22;76102;50.890;3.932;2024-03-08T14:54:21;12.70;49.30
85671;DHT22;76102;50.890;3.932;2024-03-08T14:56:50;12.70;49.50
85671;DHT22;76102;50.890;3.932;2024-03-08T14:59:20;12.80;49.70
85671;DHT22;76102;50.890;3.932;2024-03-08T15:01:46;12.90;48.70
85671;DHT22;76102;50.890;3.932;2024-03-08T15:04:12;12.90;48.80
85671;DHT22;76102;50.890;3.932;2024-03-08T15:06:38;12.90;48.50
85671;DHT22;76102;50.890;3.932;2024-03-08T15:09:04;12.80;48.40
85671;DHT22;76102;50.890;3.932;2024-03-08T15:11:38;12.80;49.50
85671;DHT22;76102;50.890;3.932;2024-03-08T15:14:05;12.80;49.80
85671;DHT22;76102;50.890;3.932;2024-03-08T15:16:39;13.00;49.50
85671;DHT22;76102;50.890;3.932;2024-03-08T15:19:08;13.00;49.20
85671;DHT22;76102;50.890;3.932;2024-03-08T15:21:37;12.90;48.60
85671;DHT22;76102;50.890;3.932;2024-03-08T15:24:03;12.80;49.10
85671;DHT22;76102;50.890;3.932;2024-03-08T15:26:33;12.80;48.80
85671;DHT22;76102;50.890;3.932;2024-03-08T15:28:59;12.70;50.20
85671;DHT22;76102;50.890;3.932;2024-03-08T15:31:25;12.90;49.90
85671;DHT22;76102;50.890;3.932;2024-03-08T15:33:52;12.90;49.30
85671;DHT22;76102;50.890;3.932;2024-03-08T15:36:26;12.90;49.00
85671;DHT22;76102;50.890;3.932;2024-03-08T15:38:54;13.00;50.00
85671;DHT22;76102;50.890;3.932;2024-03-08T15:41:22;13.00;49.60
85671;DHT22;76102;50.890;3.932;2024-03-08T15:43:47;12.80;48.90
85671;DHT22;76102;50.890;3.932;2024-03-08T15:46:16;12.70;49.10
85671;DHT22;76102;50.890;3.932;2024-03-08T15:48:41;12.70;49.60
85671;DHT22;76102;50.890;3.932;2024-03-08T15:51:10;12.70;49.20
85671;DHT22;76102;50.890;3.932;2024-03-08T15:53:37;12.60;49.60
85671;DHT22;76102;50.890;3.932;2024-03-08T15:56:08;12.50;50.00
85671;DHT22;76102;50.890;3.932;2024-03-08T15:58:34;12.60;49.90
85671;DHT22;76102;50.890;3.932;2024-03-08T16:01:03;12.60;49.50
85671;DHT22;76102;50.890;3.932;2024-03-08T16:03:33;12.60;50.10